Time;durP1;ratioP1;P1;durP2;ratioP2;P2;SDS_P1;SDS_P2;PMS_P1;PMS_P2;Temp;Humidity;BMP_temperature;BMP_pressure;BME280_temperature;BME280_humidity;BME280_pressure;Samples;Min_cycle;Max_cycle;Signal;HPM_P1;HPM_P2
2023/04/18 00:01:28;;;;;;;5.30;2.60;;;;;;;11.51;49.42;100595.04;109370;1256;65026;-66
2023/04/18 00:03:56;;;;;;;6.10;1.90;;;;;;;11.51;49.51;100592.60;109135;1255;59229;-66
2023/04/18 00:06:25;;;;;;;5.10;2.00;;;;;;;11.51;49.59;100589.46;109340;1256;64149;-66
2023/04/18 00:08:53;;;;;;;5.80;1.90;;;;;;;11.50;49.50;100586.14;109357;1255;57319;-67
2023/04/18 00:11:21;;;;;;;5.50;2.20;;;;;;;11.50;49.38;100587.59;109371;1256;57241;-67
2023/04/18 00:13:49;;;;;;;6.00;2.10;;;;;;;11.49;49.40;100586.19;109362;1257;64068;-67
2023/04/18 00:16:17;;;;;;;5.20;2.10;;;;;;;11.49;49.67;100587.83;109370;1255;59111;-66
2023/04/18 00:18:47;;;;;;;4.80;1.80;;;;;;;11.47;49.89;100588.81;109189;1256;64862;-67
2023/04/18 00:21:15;;;;;;;4.90;2.20;;;;;;;11.45;50.04;100587.73;109087;1257;58186;-67
2023/04/18 00:23:44;;;;;;;8.60;1.90;;;;;;;11.45;50.09;100587.05;109185;1255;58162;-67
2023/04/18 00:26:13;;;;;;;4.90;1.80;;;;;;;11.44;50.23;100586.73;109140;1255;66191;-67
2023/04/18 00:28:41;;;;;;;8.10;2.20;;;;;;;11.44;50.32;100589.43;109195;1257;59497;-67
2023/04/18 00:31:10;;;;;;;5.40;2.10;;;;;;;11.42;50.28;100590.64;109116;1257;64032;-67
2023/04/18 00:33:38;;;;;;;4.70;2.10;;;;;;;11.40;50.47;100589.55;109013;1255;58198;-67
2023/04/18 00:36:07;;;;;;;7.30;2.00;;;;;;;11.38;50.74;100586.16;109260;1256;58203;-67
2023/04/18 00:38:35;;;;;;;8.20;2.60;;;;;;;11.37;51.09;100589.28;109295;1259;64849;-67
2023/04/18 00:41:03;;;;;;;7.70;2.40;;;;;;;11.35;51.38;100585.77;109293;1257;59331;-67
2023/04/18 00:43:33;;;;;;;6.50;2.80;;;;;;;11.31;51.51;100581.84;109281;1256;64014;-66
2023/04/18 00:46:02;;;;;;;7.10;2.70;;;;;;;11.27;51.59;100583.52;109271;1256;58169;-66
2023/04/18 00:48:30;;;;;;;5.80;2.40;;;;;;;11.23;51.76;100584.08;109142;1256;58518;-68
2023/04/18 00:50:59;;;;;;;6.00;2.60;;;;;;;11.19;52.07;100585.21;109177;1256;66156;-67
2023/04/18 00:53:27;;;;;;;8.10;2.70;;;;;;;11.15;52.50;100584.11;109052;1256;58650;-66
2023/04/18 00:55:55;;;;;;;6.70;2.60;;;;;;;11.12;52.76;100582.11;109073;1256;64693;-66
2023/04/18 00:58:24;;;;;;;6.70;2.90;;;;;;;11.09;52.95;100584.27;109137;1260;58116;-67
2023/04/18 01:00:53;;;;;;;7.10;2.50;;;;;;;11.05;53.22;100585.64;109105;1256;58283;-69
2023/04/18 01:03:22;;;;;;;5.00;2.80;;;;;;;11.00;53.30;100583.36;109302;1257;65239;-68
2023/04/18 01:05:52;;;;;;;7.80;3.00;;;;;;;10.98;53.52;100582.52;109069;1257;59313;-66
2023/04/18 01:08:20;;;;;;;5.70;2.70;;;;;;;10.89;53.94;100583.66;109081;1256;65069;-67
2023/04/18 01:10:48;;;;;;;4.80;3.00;;;;;;;10.83;54.42;100574.30;109105;1256;58151;-66
2023/04/18 01:13:18;;;;;;;3.90;2.60;;;;;;;10.81;54.61;100573.21;109296;1255;58164;-67
2023/04/18 01:15:47;;;;;;;5.10;2.80;;;;;;;10.77;54.83;100568.77;109109;1257;65901;-66
2023/04/18 01:18:16;;;;;;;6.70;2.70;;;;;;;10.75;55.15;100563.34;109113;1255;59387;-66
2023/04/18 01:20:48;;;;;;;4.80;2.70;;;;;;;10.72;55.38;100566.71;109325;1255;64711;-66
2023/04/18 01:23:17;;;;;;;5.10;2.90;;;;;;;10.69;55.56;100568.35;109116;1256;58141;-67
2023/04/18 01:25:45;;;;;;;6.00;2.90;;;;;;;10.67;55.83;100564.09;109104;1256;58077;-66
2023/04/18 01:28:14;;;;;;;6.70;2.80;;;;;;;10.67;55.71;100558.27;109130;1255;65994;-67
2023/04/18 01:30:42;;;;;;;6.70;3.00;;;;;;;10.67;55.81;100561.25;109127;1256;59261;-67
2023/04/18 01:33:11;;;;;;;6.00;3.40;;;;;;;10.67;55.95;100556.88;109098;1257;63894;-67
2023/04/18 01:35:39;;;;;;;5.50;2.90;;;;;;;10.68;56.06;100560.86;109296;1256;58171;-67
2023/04/18 01:38:07;;;;;;;5.30;3.20;;;;;;;10.67;56.12;100561.80;109348;1255;58046;-66
2023/04/18 01:40:35;;;;;;;7.10;3.00;;;;;;;10.66;56.18;100563.13;109310;1255;64817;-66
2023/04/18 01:43:04;;;;;;;5.80;2.90;;;;;;;10.63;56.63;100566.49;109189;1257;58397;-66
2023/04/18 01:45:32;;;;;;;5.70;2.90;;;;;;;10.59;57.33;100565.61;108976;1258;65075;-67
2023/04/18 01:48:02;;;;;;;4.80;2.70;;;;;;;10.55;57.54;100562.53;109153;1257;58158;-67
2023/04/18 01:50:30;;;;;;;4.10;2.70;;;;;;;10.53;57.69;100560.98;109116;1257;58066;-67
2023/04/18 01:52:58;;;;;;;5.50;2.80;;;;;;;10.51;57.54;100555.44;109166;1257;66153;-67
2023/04/18 01:55:26;;;;;;;5.90;2.70;;;;;;;10.48;57.07;100559.24;109127;1257;58267;-66
2023/04/18 01:57:54;;;;;;;10.20;2.70;;;;;;;10.46;57.10;100557.45;109090;1257;64077;-67
2023/04/18 02:00:23;;;;;;;5.30;2.60;;;;;;;10.45;57.08;100553.82;109117;1256;58164;-66
2023/04/18 02:02:51;;;;;;;6.00;2.60;;;;;;;10.45;57.06;100551.40;109052;1257;58196;-66
2023/04/18 02:05:20;;;;;;;5.40;2.50;;;;;;;10.44;56.89;100551.09;109125;1256;65837;-66
2023/04/18 02:07:49;;;;;;;5.90;2.00;;;;;;;10.44;56.72;100550.22;109324;1256;59021;-66
2023/04/18 02:10:18;;;;;;;4.80;2.60;;;;;;;10.43;56.46;100546.73;109160;1257;65123;-67
2023/04/18 02:12:46;;;;;;;4.80;2.30;;;;;;;10.42;56.13;100550.14;109286;1258;58158;-66
2023/04/18 02:15:14;;;;;;;4.10;2.70;;;;;;;10.43;56.09;100548.88;109271;1255;58110;-66
2023/04/18 02:17:42;;;;;;;5.60;2.80;;;;;;;10.43;56.12;100542.52;109154;1256;66158;-67
2023/04/18 02:20:12;;;;;;;8.50;2.60;;;;;;;10.43;56.11;100540.45;109365;1257;59361;-67
2023/04/18 02:22:40;;;;;;;7.90;2.90;;;;;;;10.41;56.06;100536.85;109136;1262;64815;-66
2023/04/18 02:25:10;;;;;;;7.40;2.50;;;;;;;10.40;55.92;100534.66;109330;1257;58189;-66
2023/04/18 02:27:39;;;;;;;5.50;2.50;;;;;;;10.39;55.96;100534.04;109155;1257;58078;-66
2023/04/18 02:30:08;;;;;;;6.50;2.50;;;;;;;10.37;55.97;100538.73;109299;1257;65828;-66
2023/04/18 02:32:36;;;;;;;4.70;2.30;;;;;;;10.37;56.07;100536.13;109100;1256;59156;-73
2023/04/18 02:35:05;;;;;;;6.70;2.40;;;;;;;10.37;56.06;100534.38;109151;1256;63731;-67
2023/04/18 02:37:33;;;;;;;6.60;2.70;;;;;;;10.35;56.01;100533.25;109249;1256;58114;-66
2023/04/18 02:40:03;;;;;;;5.00;2.50;;;;;;;10.33;55.85;100536.05;109097;1257;58085;-66
2023/04/18 02:42:32;;;;;;;5.90;2.50;;;;;;;10.30;55.88;100535.55;109166;1257;65812;-67
2023/04/18 02:45:01;;;;;;;6.20;2.60;;;;;;;10.27;55.77;100532.95;109147;1256;59587;-71
2023/04/18 02:47:30;;;;;;;5.20;2.50;;;;;;;10.25;55.72;100537.38;109091;1257;63697;-66
2023/04/18 02:50:10;;;;;;;3.50;2.00;;;;;;;10.24;55.48;100535.71;109005;1257;58106;-67
2023/04/18 02:52:38;;;;;;;7.50;2.30;;;;;;;10.24;55.40;100535.52;109165;1257;58068;-67
2023/04/18 02:55:08;;;;;;;5.10;2.30;;;;;;;10.24;55.37;100535.20;109095;1257;64907;-67
2023/04/18 02:57:38;;;;;;;3.40;2.20;;;;;;;10.24;55.41;100532.70;109091;1257;58489;-67
2023/04/18 03:00:42;;;;;;;5.40;2.50;;;;;;;10.23;55.53;100531.91;108449;1268;64809;-67
2023/04/18 03:03:29;;;;;;;5.40;2.30;;;;;;;10.21;55.46;100533.23;109221;1257;58181;-66
2023/04/18 03:06:13;;;;;;;5.90;2.30;;;;;;;10.18;55.46;100527.50;109155;1257;58182;-67
2023/04/18 03:08:43;;;;;;;7.10;2.60;;;;;;;10.16;55.58;100522.39;109126;1257;66041;-67
2023/04/18 03:11:11;;;;;;;7.00;2.60;;;;;;;10.15;55.63;100524.55;109113;1257;59292;-67
2023/04/18 03:13:39;;;;;;;6.80;2.50;;;;;;;10.15;55.69;100524.91;109106;1258;64819;-66
2023/04/18 03:16:08;;;;;;;7.10;2.70;;;;;;;10.14;55.69;100529.38;109069;1257;58123;-69
2023/04/18 03:18:37;;;;;;;5.40;2.80;;;;;;;10.13;55.69;100529.08;109092;1257;58317;-67
2023/04/18 03:21:06;;;;;;;5.00;2.90;;;;;;;10.13;55.81;100532.25;108948;1257;65854;-66
2023/04/18 03:23:34;;;;;;;5.60;2.40;;;;;;;10.13;55.83;100535.58;109060;1263;58655;-66
2023/04/18 03:26:06;;;;;;;6.00;2.60;;;;;;;10.12;55.77;100536.88;109095;1261;72898;-71
2023/04/18 03:28:36;;;;;;;5.60;2.70;;;;;;;10.13;55.87;100537.21;109077;1257;58146;-67
2023/04/18 03:31:06;;;;;;;9.40;2.70;;;;;;;10.13;56.00;100541.23;109057;1257;58039;-67
2023/04/18 03:33:38;;;;;;;3.70;2.50;;;;;;;10.12;55.98;100542.18;109031;1257;66147;-67
2023/04/18 03:36:13;;;;;;;4.30;2.40;;;;;;;10.10;55.87;100538.44;109015;1257;59462;-67
2023/04/18 03:38:44;;;;;;;3.90;2.30;;;;;;;10.09;55.72;100544.55;109035;1257;65086;-67
2023/04/18 03:41:16;;;;;;;5.90;2.00;;;;;;;10.08;55.71;100547.77;108977;1257;58211;-66
2023/04/18 03:43:46;;;;;;;5.50;2.40;;;;;;;10.08;55.70;100549.35;108998;1265;58123;-67
2023/04/18 03:46:16;;;;;;;4.80;2.40;;;;;;;10.09;55.66;100549.98;108965;1265;66804;-67
2023/04/18 03:48:46;;;;;;;8.00;2.30;;;;;;;10.09;55.52;100548.23;109074;1257;58201;-67
2023/04/18 03:51:18;;;;;;;6.10;2.40;;;;;;;10.09;55.38;100550.31;108992;1263;64109;-67
2023/04/18 03:53:48;;;;;;;5.30;2.50;;;;;;;10.11;55.30;100548.06;108987;1257;58207;-68
2023/04/18 03:56:20;;;;;;;6.30;2.70;;;;;;;10.13;55.29;100546.71;109024;1257;58257;-67
2023/04/18 03:58:54;;;;;;;4.70;2.30;;;;;;;10.13;55.31;100551.42;109009;1257;65952;-67
2023/04/18 04:01:24;;;;;;;4.90;2.20;;;;;;;10.14;55.13;100552.79;109045;1257;59210;-67
2023/04/18 04:03:54;;;;;;;5.10;2.40;;;;;;;10.16;55.09;100553.73;109030;1257;65260;-66
2023/04/18 04:06:25;;;;;;;4.70;2.30;;;;;;;10.17;55.00;100552.74;109005;1257;58211;-66
2023/04/18 04:08:56;;;;;;;5.60;2.40;;;;;;;10.18;54.74;100554.73;109077;1257;58201;-66
2023/04/18 04:11:27;;;;;;;7.60;2.20;;;;;;;10.19;54.76;100556.95;108945;1257;63625;-66
2023/04/18 04:13:59;;;;;;;4.50;2.00;;;;;;;10.21;54.78;100555.57;109002;1257;60433;-66
2023/04/18 04:16:34;;;;;;;4.30;2.20;;;;;;;10.23;54.73;100555.83;108965;1257;62793;-67
2023/04/18 04:19:05;;;;;;;6.10;2.10;;;;;;;10.24;54.69;100557.36;109003;1257;58123;-67
2023/04/18 04:21:41;;;;;;;5.50;2.10;;;;;;;10.24;54.71;100558.78;109007;1257;58544;-66
2023/04/18 04:24:14;;;;;;;3.00;2.00;;;;;;;10.25;55.13;100561.11;109026;1257;66237;-67
2023/04/18 04:26:49;;;;;;;5.60;2.40;;;;;;;10.26;55.27;100560.15;108976;1257;59165;-67
2023/04/18 04:36:32;;;;;;;7.00;2.30;;;;;;;10.24;56.54;100570.70;102755;1292;601271;-67
2023/04/18 04:39:03;;;;;;;5.70;2.30;;;;;;;10.20;56.93;100569.07;104887;1267;59385;-67
2023/04/18 04:41:46;;;;;;;4.40;2.50;;;;;;;10.13;57.48;100569.70;104770;1267;59302;-67
2023/04/18 04:44:16;;;;;;;9.90;2.40;;;;;;;10.04;57.79;100572.15;104887;1272;64371;-67
2023/04/18 04:46:46;;;;;;;8.30;3.60;;;;;;;9.96;58.25;100571.04;105021;1267;60028;-69
2023/04/18 04:49:18;;;;;;;8.60;2.80;;;;;;;9.89;58.75;100573.30;104904;1264;157574;-67
2023/04/18 04:51:46;;;;;;;5.10;2.50;;;;;;;9.83;59.08;100577.98;104962;1269;59333;-68
2023/04/18 04:54:15;;;;;;;5.50;2.50;;;;;;;9.77;59.34;100577.67;104920;1264;60249;-70
2023/04/18 04:56:43;;;;;;;6.70;2.50;;;;;;;9.71;59.59;100582.10;104977;1266;64931;-67
2023/04/18 04:59:12;;;;;;;5.50;2.50;;;;;;;9.68;60.01;100583.08;105161;1266;59266;-67
2023/04/18 05:01:45;;;;;;;6.80;2.90;;;;;;;9.64;60.56;100583.39;104725;1270;64587;-68
2023/04/18 05:04:15;;;;;;;9.90;3.20;;;;;;;9.58;60.89;100585.38;105014;1263;59724;-67
2023/04/18 05:06:45;;;;;;;6.10;2.70;;;;;;;9.55;61.22;100585.22;105563;1266;59758;-68
2023/04/18 05:09:13;;;;;;;4.90;2.70;;;;;;;9.54;61.33;100580.42;105072;1269;65969;-67
2023/04/18 05:11:42;;;;;;;5.00;2.30;;;;;;;9.52;61.43;100579.65;104827;1270;59841;-66
2023/04/18 05:14:11;;;;;;;9.00;3.00;;;;;;;9.51;61.40;100582.91;104990;1267;65580;-67
2023/04/18 05:16:46;;;;;;;6.70;2.80;;;;;;;9.50;61.49;100585.48;105113;1268;59632;-69
2023/04/18 05:19:20;;;;;;;8.40;2.90;;;;;;;9.48;61.61;100590.86;104986;1263;59635;-69
2023/04/18 05:21:48;;;;;;;10.60;3.20;;;;;;;9.47;61.79;100593.03;105111;1267;65968;-67
2023/04/18 05:24:17;;;;;;;6.70;2.90;;;;;;;9.46;62.11;100594.52;105005;1266;59522;-67
2023/04/18 05:26:46;;;;;;;5.90;3.20;;;;;;;9.45;62.50;100598.45;104979;1264;65297;-69
2023/04/18 05:29:14;;;;;;;7.50;2.90;;;;;;;9.43;62.75;100598.75;104991;1264;59532;-70
2023/04/18 05:31:42;;;;;;;9.10;3.30;;;;;;;9.42;63.19;100598.66;105552;1263;59812;-73
2023/04/18 05:34:10;;;;;;;6.50;2.90;;;;;;;9.41;63.49;100598.38;105223;1264;64613;-67
2023/04/18 05:36:40;;;;;;;5.80;3.00;;;;;;;9.40;63.78;100601.29;105360;1263;60959;-66
2023/04/18 05:39:08;;;;;;;10.10;3.10;;;;;;;9.38;63.92;100601.40;105855;1261;65500;-68
2023/04/18 05:41:36;;;;;;;7.60;3.60;;;;;;;9.37;64.21;100599.05;105230;1263;59534;-67
2023/04/18 05:44:05;;;;;;;7.50;3.80;;;;;;;9.34;64.39;100597.62;105436;1261;59707;-70
2023/04/18 05:46:33;;;;;;;8.20;3.80;;;;;;;9.32;64.65;100599.86;105285;1264;64618;-67
2023/04/18 05:49:02;;;;;;;8.60;3.90;;;;;;;9.32;64.91;100601.69;105250;1261;67155;-69
2023/04/18 05:51:31;;;;;;;7.50;3.70;;;;;;;9.32;65.11;100598.61;105368;1262;65741;-68
2023/04/18 05:54:04;;;;;;;8.00;3.30;;;;;;;9.35;65.35;100599.32;105302;1260;59713;-68
2023/04/18 05:56:34;;;;;;;7.50;3.70;;;;;;;9.36;65.41;100597.83;105801;1259;59630;-68
2023/04/18 05:59:11;;;;;;;8.50;3.50;;;;;;;9.37;65.61;100597.60;105392;1265;65335;-68
2023/04/18 06:01:42;;;;;;;6.60;3.20;;;;;;;9.39;65.66;100592.40;105535;1265;59624;-66
2023/04/18 06:04:10;;;;;;;6.30;3.20;;;;;;;9.39;65.75;100593.41;105403;1260;65521;-70
2023/04/18 06:06:39;;;;;;;8.70;3.40;;;;;;;9.42;65.81;100593.20;105573;1262;59579;-68
2023/04/18 06:09:08;;;;;;;9.30;3.30;;;;;;;9.44;65.81;100589.02;105690;1259;60709;-67
2023/04/18 06:11:36;;;;;;;7.60;2.90;;;;;;;9.46;65.84;100587.31;105009;1260;67273;-68
2023/04/18 06:14:04;;;;;;;5.10;3.00;;;;;;;9.47;65.81;100584.05;105703;1263;59946;-70
2023/04/18 06:16:35;;;;;;;9.60;3.30;;;;;;;9.48;65.58;100581.34;105850;1258;73325;-71
2023/04/18 06:19:04;;;;;;;8.40;2.90;;;;;;;9.51;65.30;100581.69;105481;1260;59624;-72
2023/04/18 06:21:32;;;;;;;7.30;3.40;;;;;;;9.53;65.07;100580.61;105442;1260;59714;-73
2023/04/18 06:24:00;;;;;;;14.40;3.40;;;;;;;9.54;64.86;100578.84;105597;1263;66194;-74
2023/04/18 06:26:30;;;;;;;6.40;2.90;;;;;;;9.55;64.84;100577.67;105696;1262;59633;-74
2023/04/18 06:28:59;;;;;;;8.20;3.10;;;;;;;9.58;64.68;100579.77;105801;1262;64205;-71
2023/04/18 06:31:27;;;;;;;9.30;3.10;;;;;;;9.61;64.65;100580.58;105603;1263;59685;-72
2023/04/18 06:33:55;;;;;;;8.00;2.80;;;;;;;9.64;64.57;100581.79;105680;1258;59637;-71
2023/04/18 06:36:25;;;;;;;6.20;2.80;;;;;;;9.67;64.34;100579.61;105752;1259;64074;-70
2023/04/18 06:38:53;;;;;;;8.00;3.00;;;;;;;9.70;64.20;100578.19;105927;1261;59895;-71
2023/04/18 06:41:21;;;;;;;6.90;3.00;;;;;;;9.68;64.05;100576.89;105652;1260;64418;-70
2023/04/18 06:43:50;;;;;;;9.70;3.30;;;;;;;9.66;63.99;100577.91;105846;1260;59665;-75
2023/04/18 06:46:31;;;;;;;8.90;3.10;;;;;;;9.65;64.32;100575.53;105470;1261;59640;-70
2023/04/18 06:48:59;;;;;;;7.60;3.20;;;;;;;9.63;64.37;100572.87;105655;1263;65881;-68
2023/04/18 06:51:30;;;;;;;9.30;3.10;;;;;;;9.59;64.51;100570.21;105534;1263;60137;-71
2023/04/18 06:54:00;;;;;;;7.80;2.20;;;;;;;9.55;64.80;100570.67;105845;1260;65186;-65
2023/04/18 06:56:31;;;;;;;7.90;3.30;;;;;;;9.49;65.13;100568.79;105196;1263;59676;-65
2023/04/18 06:59:01;;;;;;;10.80;3.90;;;;;;;9.44;65.44;100566.52;105387;1261;59772;-72
2023/04/18 07:01:31;;;;;;;9.70;3.90;;;;;;;9.41;65.71;100563.05;105584;1267;65739;-74
2023/04/18 07:04:00;;;;;;;9.00;3.60;;;;;;;9.37;65.86;100558.98;105649;1263;59624;-72
2023/04/18 07:06:37;;;;;;;9.60;3.50;;;;;;;9.33;66.07;100556.59;105273;1263;65602;-72
2023/04/18 07:09:25;;;;;;;8.80;4.10;;;;;;;9.32;66.34;100555.98;105580;1263;59646;-68
2023/04/18 07:11:53;;;;;;;12.10;4.10;;;;;;;9.34;66.59;100552.52;105401;1259;59777;-72
2023/04/18 07:14:22;;;;;;;10.30;3.40;;;;;;;9.36;66.78;100555.16;105155;1263;65205;-69
2023/04/18 07:16:51;;;;;;;14.10;4.10;;;;;;;9.38;66.78;100555.04;105616;1261;59967;-68
2023/04/18 07:19:19;;;;;;;10.00;3.60;;;;;;;9.42;66.88;100563.85;105419;1264;64372;-69
2023/04/18 07:21:47;;;;;;;9.70;3.30;;;;;;;9.48;66.99;100564.48;105586;1258;59765;-70
2023/04/18 07:24:15;;;;;;;8.40;3.50;;;;;;;9.54;67.10;100563.20;105526;1264;59616;-74
2023/04/18 07:26:44;;;;;;;9.80;3.70;;;;;;;9.59;67.16;100565.11;105366;1263;65950;-70
2023/04/18 07:29:12;;;;;;;14.70;3.80;;;;;;;9.63;67.23;100570.23;105458;1264;59656;-71
2023/04/18 07:31:41;;;;;;;7.80;3.60;;;;;;;9.67;67.32;100570.86;106074;1261;65877;-69
2023/04/18 07:34:10;;;;;;;12.40;3.80;;;;;;;9.72;67.44;100568.54;105601;1267;61082;-69
2023/04/18 07:36:39;;;;;;;9.00;3.60;;;;;;;9.77;67.37;100564.83;105622;1260;59692;-73
2023/04/18 07:39:07;;;;;;;7.90;4.10;;;;;;;9.83;67.57;100556.16;105385;1260;64724;-70
2023/04/18 07:41:36;;;;;;;13.60;5.00;;;;;;;9.87;67.42;100556.77;106163;1254;59666;-69
2023/04/18 07:44:04;;;;;;;11.50;4.90;;;;;;;9.87;67.16;100553.90;105353;1261;65726;-70
2023/04/18 07:46:32;;;;;;;10.80;4.70;;;;;;;9.86;66.86;100552.23;105517;1258;59564;-69
2023/04/18 07:49:01;;;;;;;10.00;4.00;;;;;;;9.87;66.96;100550.39;105537;1257;59517;-68
2023/04/18 07:51:33;;;;;;;13.70;4.20;;;;;;;9.90;67.25;100546.33;105536;1260;65377;-68
2023/04/18 07:54:02;;;;;;;6.90;3.20;;;;;;;9.93;67.52;100543.92;105867;1258;59827;-69
2023/04/18 07:56:56;;;;;;;8.30;3.60;;;;;;;9.96;67.75;100543.92;105493;1254;65608;-69
2023/04/18 07:59:26;;;;;;;8.20;3.70;;;;;;;10.00;68.11;100541.34;105628;1260;59640;-69
2023/04/18 08:01:54;;;;;;;9.70;3.50;;;;;;;10.07;68.52;100540.25;105865;1258;59510;-69
2023/04/18 08:04:22;;;;;;;10.20;4.10;;;;;;;10.17;68.76;100542.18;105898;1258;65928;-69
2023/04/18 08:06:51;;;;;;;9.60;3.60;;;;;;;10.30;68.96;100544.77;105864;1254;59753;-69
2023/04/18 08:09:20;;;;;;;11.10;4.10;;;;;;;10.46;69.15;100543.02;105762;1258;65466;-69
2023/04/18 08:11:48;;;;;;;8.10;3.60;;;;;;;10.62;69.21;100543.35;105823;1258;59743;-71
2023/04/18 08:14:16;;;;;;;12.60;3.80;;;;;;;10.81;69.18;100541.19;105879;1257;59637;-70
2023/04/18 08:16:45;;;;;;;7.40;3.50;;;;;;;11.00;68.87;100541.65;105524;1260;65331;-69
2023/04/18 08:19:13;;;;;;;11.00;3.50;;;;;;;11.15;68.35;100541.66;105831;1258;59726;-69
2023/04/18 08:21:42;;;;;;;8.90;2.90;;;;;;;11.27;67.83;100542.67;105599;1259;65451;-68
2023/04/18 08:24:11;;;;;;;8.60;2.90;;;;;;;11.37;67.16;100542.01;105570;1258;59500;-70
2023/04/18 08:26:39;;;;;;;14.00;3.20;;;;;;;11.45;66.14;100541.19;105510;1260;59675;-68
2023/04/18 08:29:07;;;;;;;10.00;3.00;;;;;;;11.51;65.44;100540.59;105307;1257;64534;-69
2023/04/18 08:31:38;;;;;;;5.10;2.50;;;;;;;11.57;64.62;100538.79;105403;1260;59986;-72
2023/04/18 08:34:07;;;;;;;14.30;4.10;;;;;;;11.67;64.25;100536.04;105514;1259;65228;-72
2023/04/18 08:36:35;;;;;;;8.40;3.00;;;;;;;11.76;63.57;100537.27;105607;1254;59543;-71
2023/04/18 08:39:04;;;;;;;8.10;3.20;;;;;;;11.82;62.83;100538.60;105596;1254;59649;-71
2023/04/18 08:41:34;;;;;;;9.60;3.30;;;;;;;11.89;62.51;100536.36;105484;1260;66105;-69
2023/04/18 08:44:03;;;;;;;11.30;3.20;;;;;;;11.99;62.12;100538.23;105793;1264;68963;-69
2023/04/18 08:46:34;;;;;;;13.60;3.10;;;;;;;12.07;61.68;100539.33;105378;1259;65203;-70
2023/04/18 08:49:03;;;;;;;7.70;3.30;;;;;;;12.18;61.43;100542.70;105526;1254;60518;-70
2023/04/18 08:51:32;;;;;;;10.50;3.10;;;;;;;12.27;61.33;100538.30;105521;1257;60377;-69
2023/04/18 08:54:03;;;;;;;12.50;2.90;;;;;;;12.39;61.05;100529.34;105679;1254;66534;-72
2023/04/18 08:56:32;;;;;;;9.70;3.10;;;;;;;12.48;60.48;100523.88;106014;1254;60545;-68
2023/04/18 08:59:00;;;;;;;7.80;2.90;;;;;;;12.50;59.95;100525.10;106106;1257;64295;-68
2023/04/18 09:02:05;;;;;;;9.10;3.10;;;;;;;12.51;59.48;100520.77;105833;1259;60428;-70
2023/04/18 09:04:34;;;;;;;7.20;2.70;;;;;;;12.55;59.02;100516.34;105085;1260;60560;-68
2023/04/18 09:07:06;;;;;;;13.10;3.20;;;;;;;12.61;59.10;100518.90;105410;1253;65805;-71
2023/04/18 09:09:50;;;;;;;10.40;3.20;;;;;;;12.69;59.15;100514.52;105681;1254;60549;-69
2023/04/18 09:12:21;;;;;;;15.60;3.40;;;;;;;12.80;59.15;100512.64;105601;1259;65170;-69
2023/04/18 09:14:56;;;;;;;9.00;2.70;;;;;;;12.92;58.70;100513.56;105527;1255;60882;-69
2023/04/18 09:17:36;;;;;;;10.30;3.10;;;;;;;13.04;58.47;100514.25;105556;1260;60457;-70
2023/04/18 09:20:05;;;;;;;9.90;3.00;;;;;;;13.25;58.52;100510.88;106226;1255;66701;-71
2023/04/18 09:22:51;;;;;;;10.60;3.40;;;;;;;13.54;58.50;100509.69;105966;1261;68409;-73
2023/04/18 09:25:45;;;;;;;7.80;3.20;;;;;;;13.87;58.66;100507.04;105847;1261;65545;-71
2023/04/18 09:28:22;;;;;;;11.40;3.40;;;;;;;14.23;58.67;100503.16;106488;1255;60555;-76
2023/04/18 09:30:51;;;;;;;10.10;2.90;;;;;;;14.58;58.77;100504.16;105865;1254;60458;-73
2023/04/18 09:33:28;;;;;;;7.50;2.70;;;;;;;14.87;58.23;100497.33;105971;1260;66672;-73
2023/04/18 09:36:17;;;;;;;7.80;2.60;;;;;;;15.17;57.59;100500.30;105743;1255;61084;-71
2023/04/18 09:38:46;;;;;;;10.00;3.30;;;;;;;15.50;57.16;100501.16;105816;1255;64319;-70
2023/04/18 09:41:15;;;;;;;14.60;3.10;;;;;;;15.75;56.17;100502.60;105934;1255;60466;-72
2023/04/18 09:43:47;;;;;;;12.50;2.90;;;;;;;15.91;55.19;100501.73;105721;1254;60485;-73
2023/04/18 09:46:21;;;;;;;9.20;3.00;;;;;;;16.05;54.52;100503.71;105798;1254;66732;-70
2023/04/18 09:48:49;;;;;;;12.90;2.70;;;;;;;16.20;53.78;100495.14;105889;1259;60434;-70
2023/04/18 09:51:17;;;;;;;13.30;2.90;;;;;;;16.37;53.29;100496.80;105800;1254;65236;-73
2023/04/18 09:53:49;;;;;;;10.70;2.90;;;;;;;16.54;52.01;100495.34;105636;1254;60434;-72
2023/04/18 09:56:27;;;;;;;13.60;2.80;;;;;;;16.67;50.85;100495.23;105289;1255;60546;-72
2023/04/18 09:59:07;;;;;;;10.80;2.50;;;;;;;16.78;50.14;100493.55;105637;1254;66902;-70
2023/04/18 10:01:35;;;;;;;9.60;3.10;;;;;;;16.85;49.86;100493.01;105711;1258;60361;-72
2023/04/18 10:04:05;;;;;;;9.30;2.60;;;;;;;17.00;49.53;100489.55;105781;1257;63715;-71
2023/04/18 10:06:37;;;;;;;9.90;2.80;;;;;;;17.21;48.87;100491.96;105892;1257;60556;-71
2023/04/18 10:09:06;;;;;;;13.70;2.80;;;;;;;17.38;48.21;100492.04;105844;1254;60440;-70
2023/04/18 10:11:35;;;;;;;12.80;2.50;;;;;;;17.51;47.62;100490.30;105733;1257;66677;-70
2023/04/18 10:14:05;;;;;;;21.40;3.10;;;;;;;17.60;47.40;100494.45;105832;1261;60455;-72
2023/04/18 10:16:34;;;;;;;12.50;2.80;;;;;;;17.73;46.55;100486.89;105839;1258;65450;-70
2023/04/18 10:19:43;;;;;;;12.00;2.40;;;;;;;17.83;46.10;100486.74;105941;1257;61146;-72
2023/04/18 10:22:12;;;;;;;15.90;2.90;;;;;;;17.96;45.90;100481.77;104753;1264;60615;-70
2023/04/18 10:24:48;;;;;;;12.00;2.70;;;;;;;18.05;44.85;100479.53;105349;1260;66807;-71
2023/04/18 10:27:18;;;;;;;13.50;2.90;;;;;;;18.00;44.03;100483.23;105252;1265;60387;-71
2023/04/18 10:29:53;;;;;;;9.60;2.90;;;;;;;17.90;44.54;100484.19;105410;1254;64510;-70
2023/04/18 10:32:22;;;;;;;14.90;2.60;;;;;;;17.88;44.38;100486.34;105414;1262;60507;-70
2023/04/18 10:34:52;;;;;;;14.30;3.10;;;;;;;17.91;45.03;100487.95;105689;1260;60431;-71
2023/04/18 10:37:21;;;;;;;12.60;3.40;;;;;;;18.05;45.16;100487.17;105480;1255;66564;-70
2023/04/18 10:39:56;;;;;;;13.30;3.10;;;;;;;18.19;43.91;100480.08;105685;1260;60364;-69
2023/04/18 10:42:46;;;;;;;14.60;3.00;;;;;;;18.29;43.61;100478.45;105642;1257;65636;-68
2023/04/18 10:45:21;;;;;;;19.30;3.00;;;;;;;18.47;43.05;100479.52;105492;1258;60536;-67
2023/04/18 10:47:49;;;;;;;11.10;2.80;;;;;;;18.55;42.14;100479.91;105569;1254;60540;-67
2023/04/18 10:50:17;;;;;;;14.10;3.80;;;;;;;18.56;42.15;100478.50;105500;1261;65985;-67
2023/04/18 10:52:45;;;;;;;21.20;3.40;;;;;;;18.69;42.34;100477.82;105482;1254;60429;-67
2023/04/18 10:55:21;;;;;;;14.90;2.90;;;;;;;18.88;42.03;100470.50;105562;1259;65247;-67
2023/04/18 10:57:50;;;;;;;16.20;3.10;;;;;;;19.01;41.43;100467.54;105562;1257;60584;-67
2023/04/18 11:00:20;;;;;;;12.40;2.90;;;;;;;18.97;40.68;100468.09;105491;1259;60457;-67
2023/04/18 11:02:56;;;;;;;15.10;2.70;;;;;;;18.87;40.79;100464.34;105727;1254;66412;-67
2023/04/18 11:05:26;;;;;;;13.10;2.90;;;;;;;18.92;41.24;100460.52;105769;1259;60459;-68
2023/04/18 11:07:54;;;;;;;17.80;3.00;;;;;;;19.11;40.97;100460.23;105734;1255;65239;-68
2023/04/18 11:10:25;;;;;;;15.30;3.00;;;;;;;19.30;40.59;100461.93;105725;1259;60456;-68
2023/04/18 11:12:53;;;;;;;18.60;3.10;;;;;;;19.43;40.10;100457.66;105652;1262;60451;-67
2023/04/18 11:15:23;;;;;;;18.10;3.20;;;;;;;19.48;39.37;100459.55;105680;1254;65562;-67
2023/04/18 11:18:01;;;;;;;15.50;2.80;;;;;;;19.34;38.35;100459.66;105685;1254;60465;-67
2023/04/18 11:20:46;;;;;;;11.20;2.70;;;;;;;19.25;38.89;100459.79;105583;1262;65353;-68
2023/04/18 11:23:16;;;;;;;16.20;3.20;;;;;;;19.32;39.43;100457.77;105630;1254;60552;-68
2023/04/18 11:25:44;;;;;;;18.30;3.20;;;;;;;19.40;39.07;100455.21;105663;1259;60369;-67
2023/04/18 11:28:12;;;;;;;14.80;3.30;;;;;;;19.51;38.78;100454.11;105711;1258;66556;-67
2023/04/18 11:30:40;;;;;;;23.60;3.40;;;;;;;19.66;38.41;100445.13;105421;1263;60543;-67
2023/04/18 11:33:10;;;;;;;19.10;3.00;;;;;;;19.85;38.09;100444.88;105420;1254;65464;-68
2023/04/18 11:35:43;;;;;;;17.60;2.80;;;;;;;20.00;37.95;100440.84;105493;1261;60436;-68
2023/04/18 11:38:13;;;;;;;26.20;3.50;;;;;;;20.21;37.57;100433.74;105564;1254;60546;-67
2023/04/18 11:40:48;;;;;;;19.20;3.10;;;;;;;20.41;36.40;100429.53;105491;1254;66802;-68